createdAt,value
2022-08-03T00:04:54.171Z,1.40
2022-08-03T00:09:55.754Z,1.40
2022-08-03T00:14:57.427Z,1.58
2022-08-03T00:19:59.171Z,1.17
2022-08-03T00:25:00.832Z,1.50
2022-08-03T00:30:02.528Z,1.80
2022-08-03T00:35:09.138Z,1.48
2022-08-03T00:40:14.406Z,1.73
2022-08-03T00:45:19.432Z,1.70
2022-08-03T00:50:23.377Z,1.83
2022-08-03T00:55:25.762Z,1.77
2022-08-03T01:00:28.221Z,1.60
2022-08-03T01:05:30.761Z,1.40
2022-08-03T01:10:39.847Z,1.60
2022-08-03T01:16:00.443Z,2.03
2022-08-03T01:21:07.621Z,1.60
2022-08-03T01:26:24.275Z,1.60
2022-08-03T01:32:59.547Z,1.88
2022-08-03T01:37:23.590Z,2.10
2022-08-03T01:42:26.408Z,1.77
2022-08-03T01:47:29.463Z,1.90
2022-08-03T01:52:33.737Z,2.00
2022-08-03T01:58:05.741Z,1.90
2022-08-03T02:03:01.571Z,1.83
2022-08-03T02:08:05.194Z,1.70
2022-08-03T02:13:08.580Z,2.08
2022-08-03T02:18:11.993Z,1.85
2022-08-03T02:23:17.189Z,1.98
2022-08-03T02:28:21.288Z,2.05
2022-08-03T02:33:34.213Z,1.90
2022-08-03T02:38:38.971Z,2.30
2022-08-03T02:44:06.535Z,1.92
2022-08-03T02:49:41.359Z,2.60
2022-08-03T02:54:26.388Z,2.58
2022-08-03T02:59:31.336Z,2.20
2022-08-03T03:04:33.871Z,2.20
2022-08-03T03:09:41.516Z,2.10
2022-08-03T03:14:44.945Z,2.67
2022-08-03T03:19:47.206Z,2.45
2022-08-03T03:24:51.756Z,2.22
2022-08-03T03:29:53.655Z,2.90
2022-08-03T03:34:56.953Z,2.38
2022-08-03T03:39:58.650Z,2.60
2022-08-03T03:45:04.326Z,2.92
2022-08-03T03:50:06.757Z,2.87
2022-08-03T03:55:08.487Z,2.75
2022-08-03T04:00:12.055Z,2.38
2022-08-03T04:05:33.424Z,2.80
2022-08-03T04:10:56.167Z,2.70
2022-08-03T04:15:59.433Z,3.10
2022-08-03T04:21:09.565Z,2.75
2022-08-03T04:26:13.537Z,2.40
2022-08-03T04:31:17.212Z,2.40
2022-08-03T04:36:23.085Z,2.70
2022-08-03T04:41:26.799Z,2.27
2022-08-03T04:46:33.131Z,2.40
2022-08-03T04:51:38.160Z,2.15
2022-08-03T04:56:41.770Z,2.30
2022-08-03T05:01:44.511Z,2.35
2022-08-03T05:06:48.008Z,2.28
2022-08-03T05:11:50.073Z,2.70
2022-08-03T05:16:51.651Z,1.98
2022-08-03T05:21:54.061Z,2.03
2022-08-03T05:26:55.713Z,2.15
2022-08-03T05:31:57.314Z,2.30
2022-08-03T05:36:59.003Z,1.90
2022-08-03T05:42:00.666Z,1.85
2022-08-03T05:47:02.226Z,2.42
2022-08-03T05:52:13.782Z,2.08
2022-08-03T05:57:16.901Z,1.80
2022-08-03T06:02:18.526Z,1.60
2022-08-03T06:07:20.249Z,2.00
2022-08-03T06:12:21.903Z,1.73
2022-08-03T06:17:23.733Z,1.88
2022-08-03T06:22:28.199Z,1.67
2022-08-03T06:27:37.173Z,1.70
2022-08-03T06:32:40.464Z,1.60
2022-08-03T06:37:46.896Z,1.73
2022-08-03T06:42:48.499Z,1.73
2022-08-03T06:48:05.009Z,1.65
2022-08-03T06:53:07.604Z,1.67
2022-08-03T06:58:09.248Z,1.77
2022-08-03T07:03:10.868Z,1.60
2022-08-03T07:08:12.873Z,1.60
2022-08-03T07:13:14.436Z,1.77
2022-08-03T07:18:16.103Z,1.42
2022-08-03T07:23:19.221Z,1.73
2022-08-03T07:28:21.536Z,2.03
2022-08-03T07:33:23.163Z,1.58
2022-08-03T07:38:24.842Z,1.67
2022-08-03T07:43:26.477Z,1.63
2022-08-03T07:48:28.075Z,1.50
2022-08-03T07:53:29.810Z,1.80
2022-08-03T07:58:32.031Z,1.70
2022-08-03T08:03:41.028Z,1.52
2022-08-03T08:08:59.429Z,1.35
2022-08-03T08:14:02.917Z,1.42
2022-08-03T08:19:04.680Z,1.33
2022-08-03T08:24:10.946Z,1.35
2022-08-03T08:29:23.095Z,1.60
2022-08-03T08:39:26.334Z,1.40
2022-08-03T08:44:29.988Z,1.45
2022-08-03T08:49:33.040Z,1.10
2022-08-03T08:54:38.255Z,1.25
2022-08-03T08:59:48.839Z,0.82
2022-08-03T09:04:51.903Z,1.00
2022-08-03T09:10:08.472Z,0.98
2022-08-03T09:15:23.840Z,0.88
2022-08-03T09:20:28.527Z,0.82
2022-08-03T09:25:38.536Z,0.60
2022-08-03T09:30:42.583Z,0.85
2022-08-03T09:35:54.830Z,1.00
2022-08-03T09:41:00.219Z,0.90
2022-08-03T09:46:04.679Z,1.08
2022-08-03T09:51:13.550Z,0.90
2022-08-03T09:56:46.934Z,1.10
2022-08-03T10:01:48.826Z,1.00
2022-08-03T10:07:07.001Z,0.98
2022-08-03T10:12:09.671Z,0.90
2022-08-03T10:17:11.382Z,0.98
2022-08-03T10:22:16.179Z,0.80
2022-08-03T10:27:20.052Z,1.10
2022-08-03T10:32:49.353Z,1.30
2022-08-03T10:38:22.201Z,1.00
2022-08-03T10:43:33.918Z,1.10
2022-08-03T10:48:37.020Z,0.93
2022-08-03T10:53:44.051Z,1.10
2022-08-03T10:58:57.945Z,0.90
2022-08-03T11:03:59.801Z,0.98
2022-08-03T11:09:10.450Z,1.10
2022-08-03T11:14:21.510Z,0.93
2022-08-03T11:19:27.593Z,1.15
2022-08-03T11:24:42.540Z,0.88
2022-08-03T11:29:57.949Z,0.95
2022-08-03T11:35:27.246Z,0.98
2022-08-03T11:40:36.969Z,1.00
2022-08-03T11:45:38.921Z,0.85
2022-08-03T11:50:40.796Z,0.80
2022-08-03T11:55:44.495Z,1.00
2022-08-03T12:00:46.310Z,0.90
2022-08-03T12:05:53.600Z,1.20
2022-08-03T12:10:58.031Z,0.93
2022-08-03T12:15:59.860Z,0.80
2022-08-03T12:21:07.384Z,0.90
2022-08-03T12:26:10.175Z,0.90
2022-08-03T12:31:12.699Z,1.00
2022-08-03T12:36:14.389Z,0.80
2022-08-03T12:41:16.679Z,0.77
2022-08-03T12:46:19.800Z,0.90
2022-08-03T12:51:21.517Z,0.80
2022-08-03T12:56:23.957Z,1.00
2022-08-03T13:01:27.850Z,0.77
2022-08-03T13:06:29.626Z,0.75
2022-08-03T13:11:55.546Z,0.90
2022-08-03T13:16:52.940Z,0.80
2022-08-03T13:22:03.654Z,0.90
2022-08-03T13:28:12.469Z,0.77
2022-08-03T13:32:29.133Z,0.93
2022-08-03T13:37:32.394Z,0.90
2022-08-03T13:42:35.505Z,0.75
2022-08-03T13:47:37.924Z,0.80
2022-08-03T13:52:39.602Z,0.77
2022-08-03T13:58:11.637Z,1.10
2022-08-03T14:03:09.505Z,0.90
2022-08-03T14:08:14.734Z,0.70
2022-08-03T14:13:17.762Z,0.70
2022-08-03T14:18:28.764Z,0.75
2022-08-03T14:23:37.851Z,0.80
2022-08-03T14:28:40.315Z,0.80
2022-08-03T14:33:41.878Z,0.95
2022-08-03T14:38:43.477Z,0.80
2022-08-03T14:44:01.426Z,0.90
2022-08-03T14:50:32.631Z,0.82
2022-08-03T14:54:28.716Z,0.90
2022-08-03T14:59:55.888Z,0.60
2022-08-03T15:04:52.720Z,0.70
2022-08-03T15:09:54.354Z,0.90
2022-08-03T15:14:56.420Z,0.80
2022-08-03T15:20:01.317Z,1.00
2022-08-03T15:26:32.174Z,0.80
2022-08-03T15:30:36.073Z,0.60
2022-08-03T15:40:39.577Z,0.70
2022-08-03T15:45:42.893Z,0.73
2022-08-03T15:50:44.568Z,0.60
2022-08-03T15:55:46.265Z,0.90
2022-08-03T16:00:49.059Z,1.10
2022-08-03T16:05:50.803Z,0.90
2022-08-03T16:10:52.426Z,0.80
2022-08-03T16:15:54.844Z,0.90
2022-08-03T16:20:59.469Z,0.70
2022-08-03T16:26:01.063Z,1.00
2022-08-03T16:31:02.739Z,0.98
2022-08-03T16:36:04.450Z,1.33
2022-08-03T16:41:06.124Z,0.98
2022-08-03T16:46:07.820Z,1.00
2022-08-03T16:51:09.461Z,0.98
2022-08-03T16:56:11.206Z,0.77
2022-08-03T17:01:21.444Z,1.00
2022-08-03T17:06:27.039Z,0.90
2022-08-03T17:11:38.844Z,0.90
2022-08-03T17:16:52.517Z,0.70
2022-08-03T17:22:10.958Z,0.90
2022-08-03T17:28:48.358Z,1.83
2022-08-03T17:32:57.883Z,1.20
2022-08-03T17:38:03.662Z,1.00
2022-08-03T17:44:08.129Z,1.10
2022-08-03T17:48:32.545Z,1.55
2022-08-03T17:53:38.586Z,1.00
2022-08-03T17:58:55.010Z,1.08
2022-08-03T18:04:02.910Z,0.93
2022-08-03T18:10:05.726Z,0.98
2022-08-03T18:14:57.707Z,1.07
2022-08-03T18:20:10.015Z,1.10
2022-08-03T18:25:17.747Z,1.00
2022-08-03T18:30:53.275Z,1.20
2022-08-03T18:35:58.685Z,1.20
2022-08-03T18:41:00.340Z,0.82
2022-08-03T18:46:06.178Z,1.00
2022-08-03T18:51:28.530Z,1.10
2022-08-03T18:56:58.194Z,1.40
2022-08-03T19:02:14.367Z,1.27
2022-08-03T19:07:24.958Z,1.40
2022-08-03T19:12:37.372Z,2.53
2022-08-03T19:17:53.705Z,1.90
2022-08-03T19:22:58.341Z,1.77
2022-08-03T19:28:00.899Z,1.77
2022-08-03T19:33:05.860Z,1.50
2022-08-03T19:38:09.705Z,1.80
2022-08-03T19:43:21.708Z,1.75
2022-08-03T19:48:29.459Z,2.05
2022-08-03T19:53:35.445Z,2.00
2022-08-03T19:58:39.256Z,1.80
2022-08-03T20:03:43.036Z,2.20
2022-08-03T20:08:45.719Z,1.83
2022-08-03T20:13:55.311Z,1.83
2022-08-03T20:18:57.022Z,1.75
2022-08-03T20:24:23.306Z,1.80
2022-08-03T20:30:06.132Z,1.83
2022-08-03T20:35:00.543Z,1.83
2022-08-03T20:40:02.850Z,2.95
2022-08-03T20:45:13.918Z,6.70
2022-08-03T20:50:31.302Z,5.80
2022-08-03T20:55:48.016Z,3.88
2022-08-03T21:00:57.566Z,2.83
2022-08-03T21:06:06.411Z,2.50
2022-08-03T21:11:16.457Z,2.00
2022-08-03T21:16:21.417Z,1.70
2022-08-03T21:21:23.996Z,1.80
2022-08-03T21:26:27.242Z,2.22
2022-08-03T21:31:28.932Z,1.80
2022-08-03T21:36:35.468Z,2.40
2022-08-03T21:41:39.164Z,1.67
2022-08-03T21:46:42.283Z,1.90
2022-08-03T21:51:45.266Z,1.98
2022-08-03T21:56:50.998Z,1.70
2022-08-03T22:01:55.271Z,1.83
2022-08-03T22:07:00.878Z,1.67
2022-08-03T22:12:03.078Z,2.05
2022-08-03T22:17:07.279Z,1.77
2022-08-03T22:22:13.917Z,1.92
2022-08-03T22:32:33.774Z,2.15
2022-08-03T22:37:36.269Z,1.52
2022-08-03T22:42:40.371Z,1.88
2022-08-03T22:47:42.073Z,2.10
2022-08-03T22:52:44.922Z,1.90
2022-08-03T22:57:46.592Z,2.03
2022-08-03T23:03:00.229Z,1.95
2022-08-03T23:08:03.894Z,1.60
2022-08-03T23:13:06.698Z,1.83
2022-08-03T23:18:09.466Z,1.83
2022-08-03T23:23:11.787Z,2.30
2022-08-03T23:28:16.376Z,2.10
2022-08-03T23:33:18.717Z,1.80
2022-08-03T23:38:23.388Z,2.53
2022-08-03T23:43:44.975Z,1.77
2022-08-03T23:48:48.706Z,2.10
2022-08-03T23:54:08.598Z,2.00
2022-08-03T23:59:21.700Z,2.10
